sensor_id;sensor_type;location;lat;lon;timestamp;pressure;altitude;pressure_sealevel;temperature;humidity
56014;BME280;41893;55.868;37.632;2022-08-19T00:01:46;100688.06;;;21.71;100.00
56014;BME280;41893;55.868;37.632;2022-08-19T00:04:14;100675.41;;;21.70;96.53
56014;BME280;41893;55.868;37.632;2022-08-19T00:06:43;100687.81;;;21.82;95.60
56014;BME280;41893;55.868;37.632;2022-08-19T00:09:12;100697.28;;;21.89;92.51
56014;BME280;41893;55.868;37.632;2022-08-19T00:11:39;100698.78;;;21.95;91.56
56014;BME280;41893;55.868;37.632;2022-08-19T00:14:07;100700.41;;;21.96;90.59
56014;BME280;41893;55.868;37.632;2022-08-19T00:16:34;100705.75;;;21.93;90.97
56014;BME280;41893;55.868;37.632;2022-08-19T00:18:59;100698.28;;;21.93;90.81
56014;BME280;41893;55.868;37.632;2022-08-19T00:21:26;100699.09;;;21.94;89.10
56014;BME280;41893;55.868;37.632;2022-08-19T00:23:55;100690.94;;;21.89;91.42
56014;BME280;41893;55.868;37.632;2022-08-19T00:26:25;100703.50;;;21.95;88.76
56014;BME280;41893;55.868;37.632;2022-08-19T00:28:51;100708.63;;;22.01;90.24
56014;BME280;41893;55.868;37.632;2022-08-19T00:31:16;100698.84;;;21.82;90.48
56014;BME280;41893;55.868;37.632;2022-08-19T00:33:43;100708.84;;;21.69;94.24
56014;BME280;41893;55.868;37.632;2022-08-19T00:36:09;100699.94;;;21.72;94.16
56014;BME280;41893;55.868;37.632;2022-08-19T00:38:36;100701.28;;;21.52;94.01
56014;BME280;41893;55.868;37.632;2022-08-19T00:41:04;100715.94;;;21.61;93.74
56014;BME280;41893;55.868;37.632;2022-08-19T00:43:30;100702.44;;;21.60;93.69
56014;BME280;41893;55.868;37.632;2022-08-19T00:45:56;100710.84;;;21.55;93.52
56014;BME280;41893;55.868;37.632;2022-08-19T00:48:22;100714.31;;;21.60;91.67
56014;BME280;41893;55.868;37.632;2022-08-19T00:50:50;100712.34;;;21.61;97.98
56014;BME280;41893;55.868;37.632;2022-08-19T00:53:20;100718.69;;;21.61;93.18
56014;BME280;41893;55.868;37.632;2022-08-19T00:55:48;100705.28;;;21.46;92.99
56014;BME280;41893;55.868;37.632;2022-08-19T00:58:19;100714.38;;;21.47;96.96
56014;BME280;41893;55.868;37.632;2022-08-19T01:00:47;100716.63;;;21.45;95.57
56014;BME280;41893;55.868;37.632;2022-08-19T01:03:16;100714.81;;;21.40;93.26
56014;BME280;41893;55.868;37.632;2022-08-19T01:05:44;100705.88;;;21.21;94.54
56014;BME280;41893;55.868;37.632;2022-08-19T01:08:10;100725.84;;;21.40;97.28
56014;BME280;41893;55.868;37.632;2022-08-19T01:10:41;100730.34;;;21.36;95.49
56014;BME280;41893;55.868;37.632;2022-08-19T01:13:07;100732.41;;;21.30;94.04
56014;BME280;41893;55.868;37.632;2022-08-19T01:15:40;100727.94;;;21.07;95.28
56014;BME280;41893;55.868;37.632;2022-08-19T01:18:10;100742.84;;;21.20;95.41
56014;BME280;41893;55.868;37.632;2022-08-19T01:20:36;100735.91;;;21.22;93.14
56014;BME280;41893;55.868;37.632;2022-08-19T01:23:03;100746.03;;;21.27;91.21
56014;BME280;41893;55.868;37.632;2022-08-19T01:25:36;100750.59;;;21.31;93.84
56014;BME280;41893;55.868;37.632;2022-08-19T01:28:04;100739.56;;;21.31;90.58
56014;BME280;41893;55.868;37.632;2022-08-19T01:30:33;100746.81;;;21.41;89.60
56014;BME280;41893;55.868;37.632;2022-08-19T01:33:00;100746.91;;;21.36;92.52
56014;BME280;41893;55.868;37.632;2022-08-19T01:35:29;100750.91;;;21.30;91.81
56014;BME280;41893;55.868;37.632;2022-08-19T01:37:59;100751.22;;;21.15;91.37
56014;BME280;41893;55.868;37.632;2022-08-19T01:40:31;100741.81;;;21.16;93.91
56014;BME280;41893;55.868;37.632;2022-08-19T01:42:58;100736.31;;;21.16;97.75
56014;BME280;41893;55.868;37.632;2022-08-19T01:45:27;100744.09;;;21.00;95.68
56014;BME280;41893;55.868;37.632;2022-08-19T01:47:54;100742.69;;;21.02;96.84
56014;BME280;41893;55.868;37.632;2022-08-19T01:50:20;100733.25;;;21.03;98.39
56014;BME280;41893;55.868;37.632;2022-08-19T01:52:46;100741.66;;;20.85;96.52
56014;BME280;41893;55.868;37.632;2022-08-19T01:55:16;100741.75;;;20.93;99.97
56014;BME280;41893;55.868;37.632;2022-08-19T01:57:45;100743.38;;;20.81;100.00
56014;BME280;41893;55.868;37.632;2022-08-19T02:00:13;100744.94;;;20.73;100.00
56014;BME280;41893;55.868;37.632;2022-08-19T02:02:41;100743.81;;;20.74;99.75
56014;BME280;41893;55.868;37.632;2022-08-19T02:05:08;100744.53;;;20.66;100.00
56014;BME280;41893;55.868;37.632;2022-08-19T02:07:35;100732.28;;;20.72;100.00
56014;BME280;41893;55.868;37.632;2022-08-19T02:10:09;100737.47;;;20.60;100.00
56014;BME280;41893;55.868;37.632;2022-08-19T02:12:36;100745.75;;;20.46;100.00
56014;BME280;41893;55.868;37.632;2022-08-19T02:15:03;100748.94;;;20.34;100.00
56014;BME280;41893;55.868;37.632;2022-08-19T02:17:30;100743.53;;;20.29;100.00
56014;BME280;41893;55.868;37.632;2022-08-19T02:19:56;100738.22;;;20.33;100.00
56014;BME280;41893;55.868;37.632;2022-08-19T02:22:23;100741.88;;;20.47;100.00
56014;BME280;41893;55.868;37.632;2022-08-19T02:24:52;100730.47;;;20.21;100.00
56014;BME280;41893;55.868;37.632;2022-08-19T02:27:18;100752.69;;;20.57;100.00
56014;BME280;41893;55.868;37.632;2022-08-19T02:29:46;100750.59;;;20.35;100.00
56014;BME280;41893;55.868;37.632;2022-08-19T02:32:12;100757.38;;;20.43;100.00
56014;BME280;41893;55.868;37.632;2022-08-19T02:34:37;100763.94;;;20.61;100.00
56014;BME280;41893;55.868;37.632;2022-08-19T02:37:03;100770.78;;;20.50;100.00
56014;BME280;41893;55.868;37.632;2022-08-19T02:39:29;100765.56;;;20.48;100.00
56014;BME280;41893;55.868;37.632;2022-08-19T02:41:55;100778.13;;;20.68;100.00
56014;BME280;41893;55.868;37.632;2022-08-19T02:44:20;100770.25;;;20.61;100.00
56014;BME280;41893;55.868;37.632;2022-08-19T02:46:47;100765.69;;;20.70;100.00
56014;BME280;41893;55.868;37.632;2022-08-19T02:49:15;100779.69;;;20.74;100.00
56014;BME280;41893;55.868;37.632;2022-08-19T02:51:43;100779.88;;;20.64;100.00
56014;BME280;41893;55.868;37.632;2022-08-19T02:54:11;100766.16;;;20.45;100.00
56014;BME280;41893;55.868;37.632;2022-08-19T02:56:40;100774.03;;;20.52;100.00
56014;BME280;41893;55.868;37.632;2022-08-19T02:59:07;100774.47;;;20.73;100.00
56014;BME280;41893;55.868;37.632;2022-08-19T03:01:37;100773.94;;;20.84;100.00
56014;BME280;41893;55.868;37.632;2022-08-19T03:04:05;100767.41;;;20.66;100.00
56014;BME280;41893;55.868;37.632;2022-08-19T03:06:32;100770.03;;;20.58;100.00
56014;BME280;41893;55.868;37.632;2022-08-19T03:08:58;100776.72;;;20.70;100.00
56014;BME280;41893;55.868;37.632;2022-08-19T03:11:31;100772.09;;;20.52;100.00
56014;BME280;41893;55.868;37.632;2022-08-19T03:13:57;100777.63;;;20.66;100.00
56014;BME280;41893;55.868;37.632;2022-08-19T03:16:26;100775.88;;;20.70;100.00
56014;BME280;41893;55.868;37.632;2022-08-19T03:18:53;100788.47;;;20.76;100.00
56014;BME280;41893;55.868;37.632;2022-08-19T03:21:21;100781.91;;;20.72;100.00
56014;BME280;41893;55.868;37.632;2022-08-19T03:23:48;100784.59;;;20.77;100.00
56014;BME280;41893;55.868;37.632;2022-08-19T03:26:14;100780.69;;;20.78;99.24
56014;BME280;41893;55.868;37.632;2022-08-19T03:28:41;100766.91;;;20.78;100.00
56014;BME280;41893;55.868;37.632;2022-08-19T03:31:12;100781.91;;;20.99;97.34
56014;BME280;41893;55.868;37.632;2022-08-19T03:33:38;100774.97;;;20.88;96.36
56014;BME280;41893;55.868;37.632;2022-08-19T03:36:08;100779.88;;;20.91;97.40
56014;BME280;41893;55.868;37.632;2022-08-19T03:38:39;100764.94;;;20.92;98.37
56014;BME280;41893;55.868;37.632;2022-08-19T03:41:07;100774.53;;;21.09;97.78
56014;BME280;41893;55.868;37.632;2022-08-19T03:43:34;100779.38;;;21.03;96.49
56014;BME280;41893;55.868;37.632;2022-08-19T03:46:02;100771.19;;;20.98;98.30
56014;BME280;41893;55.868;37.632;2022-08-19T03:48:34;100775.78;;;21.02;97.55
56014;BME280;41893;55.868;37.632;2022-08-19T03:51:00;100787.00;;;21.06;98.30
56014;BME280;41893;55.868;37.632;2022-08-19T03:53:29;100779.03;;;21.18;100.00
56014;BME280;41893;55.868;37.632;2022-08-19T03:55:57;100780.25;;;21.12;99.85
56014;BME280;41893;55.868;37.632;2022-08-19T03:58:25;100790.47;;;21.12;99.34
56014;BME280;41893;55.868;37.632;2022-08-19T04:00:52;100786.63;;;21.26;97.79
56014;BME280;41893;55.868;37.632;2022-08-19T04:03:18;100782.91;;;21.17;96.04
56014;BME280;41893;55.868;37.632;2022-08-19T04:05:45;100777.41;;;21.17;97.59
56014;BME280;41893;55.868;37.632;2022-08-19T04:08:11;100777.53;;;21.26;94.91
56014;BME280;41893;55.868;37.632;2022-08-19T04:10:36;100773.63;;;21.27;95.12
56014;BME280;41893;55.868;37.632;2022-08-19T04:13:04;100780.56;;;21.38;95.49
56014;BME280;41893;55.868;37.632;2022-08-19T04:15:32;100781.72;;;21.23;96.52
56014;BME280;41893;55.868;37.632;2022-08-19T04:18:05;100786.94;;;21.25;96.86
56014;BME280;41893;55.868;37.632;2022-08-19T04:20:39;100791.50;;;21.43;96.08
56014;BME280;41893;55.868;37.632;2022-08-19T04:23:05;100791.59;;;21.38;96.52
56014;BME280;41893;55.868;37.632;2022-08-19T04:25:36;100782.91;;;21.45;96.07
56014;BME280;41893;55.868;37.632;2022-08-19T04:28:02;100785.69;;;21.67;93.09
56014;BME280;41893;55.868;37.632;2022-08-19T04:30:27;100785.28;;;21.60;92.98
56014;BME280;41893;55.868;37.632;2022-08-19T04:32:53;100796.53;;;21.63;92.09
56014;BME280;41893;55.868;37.632;2022-08-19T04:35:19;100796.66;;;21.58;92.12
56014;BME280;41893;55.868;37.632;2022-08-19T04:37:45;100788.66;;;21.70;92.34
56014;BME280;41893;55.868;37.632;2022-08-19T04:40:11;100795.00;;;21.71;94.08
56014;BME280;41893;55.868;37.632;2022-08-19T04:42:55;100796.81;;;21.76;92.42
56014;BME280;41893;55.868;37.632;2022-08-19T04:45:22;100796.81;;;21.76;91.34
56014;BME280;41893;55.868;37.632;2022-08-19T04:47:47;100801.59;;;21.84;91.27
56014;BME280;41893;55.868;37.632;2022-08-19T04:50:14;100794.88;;;21.76;91.73
56014;BME280;41893;55.868;37.632;2022-08-19T04:52:39;100789.53;;;21.80;91.96
56014;BME280;41893;55.868;37.632;2022-08-19T04:55:10;100794.00;;;21.89;92.40
56014;BME280;41893;55.868;37.632;2022-08-19T04:57:36;100794.00;;;21.89;90.50
56014;BME280;41893;55.868;37.632;2022-08-19T05:00:07;100800.97;;;21.87;90.74
56014;BME280;41893;55.868;37.632;2022-08-19T05:02:33;100797.16;;;21.96;91.32
56014;BME280;41893;55.868;37.632;2022-08-19T05:05:08;100792.69;;;22.09;90.96
56014;BME280;41893;55.868;37.632;2022-08-19T05:07:34;100806.41;;;22.14;89.73
56014;BME280;41893;55.868;37.632;2022-08-19T05:10:01;100793.72;;;22.13;89.19
56014;BME280;41893;55.868;37.632;2022-08-19T05:12:28;100796.84;;;22.20;87.98
56014;BME280;41893;55.868;37.632;2022-08-19T05:14:54;100799.19;;;22.27;90.81
56014;BME280;41893;55.868;37.632;2022-08-19T05:17:22;100798.53;;;22.30;88.67
56014;BME280;41893;55.868;37.632;2022-08-19T05:19:47;100800.03;;;22.36;88.83
56014;BME280;41893;55.868;37.632;2022-08-19T05:22:32;100798.28;;;22.40;88.46
56014;BME280;41893;55.868;37.632;2022-08-19T05:25:06;100788.91;;;22.27;88.53
56014;BME280;41893;55.868;37.632;2022-08-19T05:27:32;100793.38;;;22.37;91.62
56014;BME280;41893;55.868;37.632;2022-08-19T05:29:58;100787.41;;;22.52;87.06
56014;BME280;41893;55.868;37.632;2022-08-19T05:32:24;100788.72;;;22.46;88.58
56014;BME280;41893;55.868;37.632;2022-08-19T05:34:51;100799.34;;;22.61;88.40
56014;BME280;41893;55.868;37.632;2022-08-19T05:37:17;100790.72;;;22.63;88.27
56014;BME280;41893;55.868;37.632;2022-08-19T05:39:42;100796.88;;;22.82;87.70
56014;BME280;41893;55.868;37.632;2022-08-19T05:42:10;100788.38;;;22.79;85.44
56014;BME280;41893;55.868;37.632;2022-08-19T05:44:41;100800.44;;;22.83;89.06
56014;BME280;41893;55.868;37.632;2022-08-19T05:47:11;100787.69;;;22.73;87.65
56014;BME280;41893;55.868;37.632;2022-08-19T05:49:37;100796.28;;;22.94;86.41
56014;BME280;41893;55.868;37.632;2022-08-19T05:52:09;100794.50;;;23.06;85.73
56014;BME280;41893;55.868;37.632;2022-08-19T05:54:40;100808.06;;;23.17;85.13
56014;BME280;41893;55.868;37.632;2022-08-19T05:57:07;100801.53;;;23.13;86.11
56014;BME280;41893;55.868;37.632;2022-08-19T05:59:33;100791.09;;;23.10;86.13
56014;BME280;41893;55.868;37.632;2022-08-19T06:02:01;100804.00;;;23.31;86.64
56014;BME280;41893;55.868;37.632;2022-08-19T06:04:27;100797.97;;;23.29;87.22
56014;BME280;41893;55.868;37.632;2022-08-19T06:06:54;100800.28;;;23.45;85.30
56014;BME280;41893;55.868;37.632;2022-08-19T06:09:22;100800.97;;;23.50;84.04
56014;BME280;41893;55.868;37.632;2022-08-19T06:11:54;100789.41;;;23.57;82.53
56014;BME280;41893;55.868;37.632;2022-08-19T06:14:25;100793.63;;;23.54;84.04
56014;BME280;41893;55.868;37.632;2022-08-19T06:16:51;100803.91;;;23.54;83.51
56014;BME280;41893;55.868;37.632;2022-08-19T06:19:19;100800.50;;;23.65;82.00
56014;BME280;41893;55.868;37.632;2022-08-19T06:21:47;100803.91;;;23.80;83.38
56014;BME280;41893;55.868;37.632;2022-08-19T06:24:20;100805.88;;;23.79;79.25
56014;BME280;41893;55.868;37.632;2022-08-19T06:26:49;100813.72;;;23.86;81.69
56014;BME280;41893;55.868;37.632;2022-08-19T06:29:17;100816.97;;;23.88;79.96
56014;BME280;41893;55.868;37.632;2022-08-19T06:31:48;100821.53;;;23.92;78.59
56014;BME280;41893;55.868;37.632;2022-08-19T06:34:16;100820.53;;;24.05;77.11
56014;BME280;41893;55.868;37.632;2022-08-19T06:36:44;100819.88;;;24.26;77.63
56014;BME280;41893;55.868;37.632;2022-08-19T06:39:21;100805.84;;;24.22;76.89
56014;BME280;41893;55.868;37.632;2022-08-19T06:41:49;100807.81;;;24.30;79.52
56014;BME280;41893;55.868;37.632;2022-08-19T06:44:18;100784.00;;;24.21;78.72
56014;BME280;41893;55.868;37.632;2022-08-19T06:46:45;100793.28;;;24.42;76.15
56014;BME280;41893;55.868;37.632;2022-08-19T06:49:11;100787.66;;;24.59;75.07
56014;BME280;41893;55.868;37.632;2022-08-19T06:51:44;100793.28;;;24.80;74.29
56014;BME280;41893;55.868;37.632;2022-08-19T06:54:13;100762.03;;;24.62;74.08
56014;BME280;41893;55.868;37.632;2022-08-19T06:56:39;100779.69;;;24.87;71.92
56014;BME280;41893;55.868;37.632;2022-08-19T06:59:08;100787.88;;;25.22;69.29
56014;BME280;41893;55.868;37.632;2022-08-19T07:01:40;100795.91;;;25.44;69.36
56014;BME280;41893;55.868;37.632;2022-08-19T07:04:07;100788.09;;;25.37;67.78
56014;BME280;41893;55.868;37.632;2022-08-19T07:06:34;100801.25;;;25.49;66.73
56014;BME280;41893;55.868;37.632;2022-08-19T07:09:01;100786.75;;;25.43;66.65
56014;BME280;41893;55.868;37.632;2022-08-19T07:11:27;100786.72;;;25.23;66.16
56014;BME280;41893;55.868;37.632;2022-08-19T07:13:53;100798.72;;;25.35;63.67
56014;BME280;41893;55.868;37.632;2022-08-19T07:16:20;100762.63;;;25.06;66.33
56014;BME280;41893;55.868;37.632;2022-08-19T07:18:48;100784.53;;;25.07;65.17
56014;BME280;41893;55.868;37.632;2022-08-19T07:21:18;100794.69;;;25.24;64.00
56014;BME280;41893;55.868;37.632;2022-08-19T07:23:44;100790.66;;;25.22;63.35
56014;BME280;41893;55.868;37.632;2022-08-19T07:26:22;100789.03;;;25.21;63.46
56014;BME280;41893;55.868;37.632;2022-08-19T07:28:49;100767.53;;;25.09;62.15
56014;BME280;41893;55.868;37.632;2022-08-19T07:31:20;100791.84;;;25.12;59.29
56014;BME280;41893;55.868;37.632;2022-08-19T07:33:48;100793.63;;;25.17;60.11
56014;BME280;41893;55.868;37.632;2022-08-19T07:36:17;100800.41;;;25.28;59.23
56014;BME280;41893;55.868;37.632;2022-08-19T07:38:45;100800.75;;;25.26;60.16
56014;BME280;41893;55.868;37.632;2022-08-19T07:41:17;100788.44;;;25.06;59.06
56014;BME280;41893;55.868;37.632;2022-08-19T07:43:43;100797.56;;;25.16;57.92
56014;BME280;41893;55.868;37.632;2022-08-19T07:46:10;100788.25;;;25.12;57.19
56014;BME280;41893;55.868;37.632;2022-08-19T07:48:36;100802.69;;;25.26;56.02
56014;BME280;41893;55.868;37.632;2022-08-19T07:51:04;100806.63;;;25.25;56.29
56014;BME280;41893;55.868;37.632;2022-08-19T07:53:31;100813.09;;;25.37;55.35
56014;BME280;41893;55.868;37.632;2022-08-19T07:56:00;100806.78;;;25.49;54.17
56014;BME280;41893;55.868;37.632;2022-08-19T07:58:29;100809.97;;;25.68;53.18
56014;BME280;41893;55.868;37.632;2022-08-19T08:00:55;100805.69;;;26.25;51.20
56014;BME280;41893;55.868;37.632;2022-08-19T08:03:22;100808.81;;;26.44;49.85
56014;BME280;41893;55.868;37.632;2022-08-19T08:06:08;100817.53;;;26.67;48.38
56014;BME280;41893;55.868;37.632;2022-08-19T08:08:53;100814.78;;;26.91;47.64
56014;BME280;41893;55.868;37.632;2022-08-19T08:11:51;100814.81;;;27.03;48.32
56014;BME280;41893;55.868;37.632;2022-08-19T08:14:46;100809.91;;;27.25;48.19
56014;BME280;41893;55.868;37.632;2022-08-19T08:17:14;100805.84;;;27.47;46.98
56014;BME280;41893;55.868;37.632;2022-08-19T08:19:41;100819.44;;;27.36;48.59
56014;BME280;41893;55.868;37.632;2022-08-19T08:22:08;100818.41;;;27.40;47.25
56014;BME280;41893;55.868;37.632;2022-08-19T08:24:54;100823.34;;;27.47;47.41
56014;BME280;41893;55.868;37.632;2022-08-19T08:27:20;100819.19;;;27.65;46.73
56014;BME280;41893;55.868;37.632;2022-08-19T08:29:45;100784.09;;;27.52;45.56
56014;BME280;41893;55.868;37.632;2022-08-19T08:32:11;100839.88;;;27.64;46.87
56014;BME280;41893;55.868;37.632;2022-08-19T08:34:37;100833.59;;;27.67;46.44
56014;BME280;41893;55.868;37.632;2022-08-19T08:37:02;100831.94;;;27.54;48.03
56014;BME280;41893;55.868;37.632;2022-08-19T08:39:28;100836.63;;;27.38;46.76
56014;BME280;41893;55.868;37.632;2022-08-19T08:42:07;100838.63;;;27.13;48.25
56014;BME280;41893;55.868;37.632;2022-08-19T08:47:17;100846.34;;;26.83;50.13
56014;BME280;41893;55.868;37.632;2022-08-19T08:52:25;100818.13;;;26.72;50.12
56014;BME280;41893;55.868;37.632;2022-08-19T08:54:54;100821.38;;;26.74;49.46
56014;BME280;41893;55.868;37.632;2022-08-19T09:00:27;100824.09;;;27.20;47.89
56014;BME280;41893;55.868;37.632;2022-08-19T09:02:56;100815.94;;;27.39;47.58
56014;BME280;41893;55.868;37.632;2022-08-19T09:05:26;100820.69;;;27.51;46.07
56014;BME280;41893;55.868;37.632;2022-08-19T09:08:04;100829.00;;;27.87;45.57
56014;BME280;41893;55.868;37.632;2022-08-19T09:10:44;100830.78;;;28.07;44.74
56014;BME280;41893;55.868;37.632;2022-08-19T09:16:20;100813.34;;;28.38;44.85
56014;BME280;41893;55.868;37.632;2022-08-19T09:18:51;100810.53;;;28.10;46.19
56014;BME280;41893;55.868;37.632;2022-08-19T09:21:20;100806.09;;;28.22;44.87
56014;BME280;41893;55.868;37.632;2022-08-19T09:23:48;100807.63;;;28.07;46.16
56014;BME280;41893;55.868;37.632;2022-08-19T09:26:17;100809.19;;;28.32;46.43
56014;BME280;41893;55.868;37.632;2022-08-19T09:28:44;100811.25;;;28.07;46.51
56014;BME280;41893;55.868;37.632;2022-08-19T09:31:12;100820.84;;;27.94;44.12
56014;BME280;41893;55.868;37.632;2022-08-19T09:33:38;100814.13;;;27.83;44.15
56014;BME280;41893;55.868;37.632;2022-08-19T09:36:10;100811.72;;;27.57;43.94
56014;BME280;41893;55.868;37.632;2022-08-19T09:38:37;100829.25;;;27.82;43.85
56014;BME280;41893;55.868;37.632;2022-08-19T09:41:14;100824.84;;;27.57;42.92
56014;BME280;41893;55.868;37.632;2022-08-19T09:43:41;100825.94;;;27.64;42.62
56014;BME280;41893;55.868;37.632;2022-08-19T09:46:09;100821.75;;;27.46;43.92
56014;BME280;41893;55.868;37.632;2022-08-19T09:48:36;100834.31;;;27.40;43.14
56014;BME280;41893;55.868;37.632;2022-08-19T09:51:04;100828.94;;;27.47;41.68
56014;BME280;41893;55.868;37.632;2022-08-19T09:53:31;100840.78;;;27.56;41.38
56014;BME280;41893;55.868;37.632;2022-08-19T09:55:56;100838.78;;;27.57;39.29
56014;BME280;41893;55.868;37.632;2022-08-19T09:58:22;100833.38;;;27.60;38.95
56014;BME280;41893;55.868;37.632;2022-08-19T10:00:57;100849.75;;;28.02;38.38
56014;BME280;41893;55.868;37.632;2022-08-19T10:03:24;100846.03;;;27.98;37.93
56014;BME280;41893;55.868;37.632;2022-08-19T10:05:50;100840.03;;;27.96;37.57
56014;BME280;41893;55.868;37.632;2022-08-19T10:08:19;100837.88;;;28.05;37.13
56014;BME280;41893;55.868;37.632;2022-08-19T10:10:47;100838.47;;;27.98;36.76
56014;BME280;41893;55.868;37.632;2022-08-19T10:13:15;100843.81;;;28.03;36.96
56014;BME280;41893;55.868;37.632;2022-08-19T10:15:41;100837.00;;;27.89;36.23
56014;BME280;41893;55.868;37.632;2022-08-19T10:18:07;100839.59;;;27.82;35.59
56014;BME280;41893;55.868;37.632;2022-08-19T10:20:33;100846.91;;;27.86;36.92
56014;BME280;41893;55.868;37.632;2022-08-19T10:23:02;100836.34;;;27.80;35.39
56014;BME280;41893;55.868;37.632;2022-08-19T10:25:28;100837.31;;;27.59;36.30
56014;BME280;41893;55.868;37.632;2022-08-19T10:27:54;100837.66;;;27.58;36.11
56014;BME280;41893;55.868;37.632;2022-08-19T10:30:20;100839.94;;;27.80;36.38
56014;BME280;41893;55.868;37.632;2022-08-19T10:32:46;100851.81;;;28.05;37.48
56014;BME280;41893;55.868;37.632;2022-08-19T10:35:12;100850.97;;;28.17;36.58
56014;BME280;41893;55.868;37.632;2022-08-19T10:37:39;100834.38;;;28.20;36.67
56014;BME280;41893;55.868;37.632;2022-08-19T10:40:07;100837.38;;;28.15;36.59
56014;BME280;41893;55.868;37.632;2022-08-19T10:42:34;100836.69;;;28.18;35.82
56014;BME280;41893;55.868;37.632;2022-08-19T10:45:01;100852.94;;;28.28;34.89
56014;BME280;41893;55.868;37.632;2022-08-19T10:47:28;100852.84;;;28.13;34.54
56014;BME280;41893;55.868;37.632;2022-08-19T10:49:55;100847.31;;;28.00;34.86
56014;BME280;41893;55.868;37.632;2022-08-19T10:52:45;100843.09;;;28.06;34.01
56014;BME280;41893;55.868;37.632;2022-08-19T10:55:11;100836.91;;;28.13;33.95
56014;BME280;41893;55.868;37.632;2022-08-19T10:57:55;100855.75;;;28.16;33.29
56014;BME280;41893;55.868;37.632;2022-08-19T11:00:22;100856.06;;;28.27;32.93
56014;BME280;41893;55.868;37.632;2022-08-19T11:02:48;100845.75;;;28.15;32.18
56014;BME280;41893;55.868;37.632;2022-08-19T11:05:15;100854.59;;;28.17;30.74
56014;BME280;41893;55.868;37.632;2022-08-19T11:07:41;100853.44;;;28.06;29.36
56014;BME280;41893;55.868;37.632;2022-08-19T11:10:09;100853.78;;;28.44;29.33
56014;BME280;41893;55.868;37.632;2022-08-19T11:12:40;100847.81;;;28.46;26.75
56014;BME280;41893;55.868;37.632;2022-08-19T11:15:07;100843.28;;;28.26;26.40
56014;BME280;41893;55.868;37.632;2022-08-19T11:17:35;100834.31;;;28.32;26.82
56014;BME280;41893;55.868;37.632;2022-08-19T11:20:02;100838.38;;;28.51;25.76
56014;BME280;41893;55.868;37.632;2022-08-19T11:22:30;100847.19;;;28.37;26.01
56014;BME280;41893;55.868;37.632;2022-08-19T11:24:56;100842.25;;;28.18;25.66
56014;BME280;41893;55.868;37.632;2022-08-19T11:27:21;100843.88;;;28.19;25.69
56014;BME280;41893;55.868;37.632;2022-08-19T11:29:47;100842.25;;;27.78;26.84
56014;BME280;41893;55.868;37.632;2022-08-19T11:32:13;100842.34;;;27.94;26.77
56014;BME280;41893;55.868;37.632;2022-08-19T11:34:40;100846.31;;;27.93;27.56
56014;BME280;41893;55.868;37.632;2022-08-19T11:37:06;100843.88;;;27.91;27.70
56014;BME280;41893;55.868;37.632;2022-08-19T11:39:33;100843.09;;;28.06;27.82
56014;BME280;41893;55.868;37.632;2022-08-19T11:42:00;100848.63;;;27.91;26.35
56014;BME280;41893;55.868;37.632;2022-08-19T11:44:27;100839.38;;;27.74;26.28
56014;BME280;41893;55.868;37.632;2022-08-19T11:46:55;100842.63;;;27.76;25.41
56014;BME280;41893;55.868;37.632;2022-08-19T11:49:21;100837.75;;;27.73;25.88
56014;BME280;41893;55.868;37.632;2022-08-19T11:51:48;100840.19;;;27.51;26.70
56014;BME280;41893;55.868;37.632;2022-08-19T11:54:16;100826.63;;;27.61;27.60
56014;BME280;41893;55.868;37.632;2022-08-19T11:56:43;100847.81;;;27.90;27.61
56014;BME280;41893;55.868;37.632;2022-08-19T11:59:10;100833.53;;;27.80;27.93
56014;BME280;41893;55.868;37.632;2022-08-19T12:01:36;100844.06;;;27.98;27.50
56014;BME280;41893;55.868;37.632;2022-08-19T12:04:02;100835.84;;;27.90;28.27
56014;BME280;41893;55.868;37.632;2022-08-19T12:06:31;100833.41;;;27.88;28.55
56014;BME280;41893;55.868;37.632;2022-08-19T12:09:01;100831.78;;;27.87;29.22
56014;BME280;41893;55.868;37.632;2022-08-19T12:11:27;100842.94;;;27.87;29.93
56014;BME280;41893;55.868;37.632;2022-08-19T12:13:53;100832.97;;;27.74;31.34
56014;BME280;41893;55.868;37.632;2022-08-19T12:16:25;100843.22;;;27.70;32.27
56014;BME280;41893;55.868;37.632;2022-08-19T12:18:53;100842.66;;;27.64;32.11
56014;BME280;41893;55.868;37.632;2022-08-19T12:21:23;100841.03;;;27.63;31.70
56014;BME280;41893;55.868;37.632;2022-08-19T12:23:50;100843.94;;;27.42;33.21
56014;BME280;41893;55.868;37.632;2022-08-19T12:26:17;100846.50;;;27.35;33.67
56014;BME280;41893;55.868;37.632;2022-08-19T12:28:43;100850.78;;;27.33;32.84
56014;BME280;41893;55.868;37.632;2022-08-19T12:31:10;100830.25;;;27.13;33.50
56014;BME280;41893;55.868;37.632;2022-08-19T12:33:39;100832.31;;;27.28;33.12
56014;BME280;41893;55.868;37.632;2022-08-19T12:36:09;100819.19;;;27.29;33.45
56014;BME280;41893;55.868;37.632;2022-08-19T12:38:35;100809.56;;;27.38;33.27
56014;BME280;41893;55.868;37.632;2022-08-19T12:41:02;100809.00;;;27.33;33.55
56014;BME280;41893;55.868;37.632;2022-08-19T12:43:30;100824.66;;;27.62;33.03
56014;BME280;41893;55.868;37.632;2022-08-19T12:45:56;100820.44;;;28.08;32.02
56014;BME280;41893;55.868;37.632;2022-08-19T12:48:23;100816.06;;;28.23;31.98
56014;BME280;41893;55.868;37.632;2022-08-19T12:50:48;100820.34;;;28.32;32.38
56014;BME280;41893;55.868;37.632;2022-08-19T12:53:15;100821.50;;;28.31;31.97
56014;BME280;41893;55.868;37.632;2022-08-19T12:55:41;100819.16;;;28.05;32.79